Time;durP1;ratioP1;P1;durP2;ratioP2;P2;SDS_P1;SDS_P2;PMS_P1;PMS_P2;Temp;Humidity;BMP_temperature;BMP_pressure;BME280_temperature;BME280_humidity;BME280_pressure;Samples;Min_cycle;Max_cycle;Signal;HPM_P1;HPM_P2
2023/10/07 00:01:33;;;;;;;11.50;6.18;;;;;;;-148.88;100.00;-17125.47;5036792;28;20132;-81
2023/10/07 00:03:59;;;;;;;9.50;5.95;;;;;;;-148.88;100.00;-17125.47;5037924;28;20021;-83
2023/10/07 00:06:37;;;;;;;12.25;6.20;;;;;;;-148.88;100.00;-17125.47;5038727;28;20100;-82
2023/10/07 00:09:15;;;;;;;12.45;6.25;;;;;;;-148.88;100.00;-17125.47;5038471;28;20025;-83
2023/10/07 00:11:49;;;;;;;17.63;7.03;;;;;;;-148.88;100.00;-17125.47;5036962;28;20460;-82
2023/10/07 00:14:15;;;;;;;10.80;5.40;;;;;;;-148.88;100.00;-17125.47;5038534;28;20023;-83
2023/10/07 00:16:47;;;;;;;11.68;5.90;;;;;;;-148.88;100.00;-17125.47;5037620;28;20108;-84
2023/10/07 00:19:16;;;;;;;11.02;5.72;;;;;;;-148.88;100.00;-17125.47;5037286;28;20032;-83
2023/10/07 00:21:59;;;;;;;12.23;6.35;;;;;;;-148.88;100.00;-17125.47;5037019;28;20043;-80
2023/10/07 00:24:32;;;;;;;13.48;6.50;;;;;;;-148.88;100.00;-17125.47;5036168;28;20025;-82
2023/10/07 00:27:05;;;;;;;12.43;6.30;;;;;;;-148.88;100.00;-17125.47;5036646;28;20017;-84
2023/10/07 00:29:41;;;;;;;10.63;6.32;;;;;;;-148.88;100.00;-17125.47;5035412;28;20036;-83
2023/10/07 00:32:10;;;;;;;11.25;5.93;;;;;;;-148.88;100.00;-17125.47;5036620;28;20069;-82
2023/10/07 00:34:39;;;;;;;14.80;6.80;;;;;;;-148.88;100.00;-17125.47;5035741;28;20056;-83
2023/10/07 00:37:07;;;;;;;13.65;6.90;;;;;;;-148.88;100.00;-17125.47;5036534;28;20093;-81
2023/10/07 00:39:33;;;;;;;12.15;6.65;;;;;;;-148.88;100.00;-17125.47;5037497;28;20049;-82
2023/10/07 00:41:59;;;;;;;11.43;6.35;;;;;;;-148.88;100.00;-17125.47;5036175;28;20033;-81
2023/10/07 00:44:33;;;;;;;10.77;6.25;;;;;;;-148.88;100.00;-17125.47;5035487;28;20121;-81
2023/10/07 00:47:19;;;;;;;11.85;6.38;;;;;;;-148.88;100.00;-17125.47;5037436;28;20393;-81
2023/10/07 00:49:54;;;;;;;12.20;6.63;;;;;;;-148.88;100.00;-17125.47;5036925;28;20075;-81
2023/10/07 00:52:33;;;;;;;12.48;6.18;;;;;;;-148.88;100.00;-17125.47;5036268;28;20386;-81
2023/10/07 01:00:12;;;;;;;10.25;7.05;;;;;;;-148.88;100.00;-17125.47;5038216;28;20018;-81
2023/10/07 01:03:47;;;;;;;14.82;6.72;;;;;;;-148.88;100.00;-17125.47;5039189;28;20078;-83
2023/10/07 01:06:07;;;;;;;15.23;6.93;;;;;;;-148.88;100.00;-17125.47;5031435;28;20025;-81
2023/10/07 01:08:38;;;;;;;11.90;7.05;;;;;;;-148.88;100.00;-17125.47;5039507;28;20022;-81
2023/10/07 01:11:20;;;;;;;17.73;7.38;;;;;;;-148.88;100.00;-17125.47;5037736;28;20458;-81
2023/10/07 01:13:56;;;;;;;14.23;7.20;;;;;;;-148.88;100.00;-17125.47;5037883;28;20083;-84
2023/10/07 01:16:45;;;;;;;10.40;7.05;;;;;;;-148.88;100.00;-17125.47;5041079;28;20068;-85
2023/10/07 01:19:36;;;;;;;13.25;6.75;;;;;;;-148.88;100.00;-17125.47;5042428;28;20029;-85
2023/10/07 01:22:35;;;;;;;11.25;6.43;;;;;;;-148.88;100.00;-17125.47;5042878;28;20068;-84
2023/10/07 01:24:58;;;;;;;15.00;6.97;;;;;;;-148.88;100.00;-17125.47;5042398;28;20034;-83
2023/10/07 01:38:51;;;;;;;14.35;6.63;;;;;;;-148.88;100.00;-17125.47;5039899;28;20116;-81
2023/10/07 01:41:21;;;;;;;12.35;6.50;;;;;;;-148.88;100.00;-17125.47;5038628;28;20029;-84
2023/10/07 01:43:58;;;;;;;11.18;6.95;;;;;;;-148.88;100.00;-17125.47;5038255;28;20038;-81
2023/10/07 01:46:36;;;;;;;12.75;7.53;;;;;;;-148.88;100.00;-17125.47;5038359;28;20018;-81
2023/10/07 01:49:17;;;;;;;11.63;6.93;;;;;;;-148.88;100.00;-17125.47;5038066;28;20092;-85
2023/10/07 01:51:56;;;;;;;13.38;6.93;;;;;;;-148.88;100.00;-17125.47;5038666;28;20025;-82
2023/10/07 01:54:45;;;;;;;10.90;6.63;;;;;;;-148.88;100.00;-17125.47;5046118;28;20033;-85
2023/10/07 01:57:15;;;;;;;12.38;7.70;;;;;;;-148.88;100.00;-17125.47;5045010;28;20025;-85
2023/10/07 02:00:22;;;;;;;;;;;;;;;;;;;;;
2023/10/07 02:02:54;;;;;;;13.27;7.32;;;;;;;-148.88;100.00;-17125.47;5044685;28;20167;-82
2023/10/07 02:05:46;;;;;;;13.85;7.20;;;;;;;-148.88;100.00;-17125.47;5045474;28;20128;-84
2023/10/07 02:08:33;;;;;;;12.30;6.90;;;;;;;-148.88;100.00;-17125.47;5046404;28;20041;-82
2023/10/07 02:11:25;;;;;;;13.57;7.53;;;;;;;-148.88;100.00;-17125.47;5046062;28;20029;-81
2023/10/07 02:14:03;;;;;;;14.48;8.50;;;;;;;-148.88;100.00;-17125.47;5043462;28;20017;-82
2023/10/07 02:16:34;;;;;;;14.10;7.65;;;;;;;-148.88;100.00;-17125.47;5045281;28;20021;-83
2023/10/07 02:19:07;;;;;;;14.50;8.13;;;;;;;-148.88;100.00;-17125.47;5044783;28;20116;-81
2023/10/07 02:21:36;;;;;;;12.47;8.00;;;;;;;-148.88;100.00;-17125.47;5045915;28;20075;-79
2023/10/07 02:24:14;;;;;;;11.77;8.23;;;;;;;-148.88;100.00;-17125.47;5044936;28;20025;-84
2023/10/07 02:26:43;;;;;;;12.07;7.68;;;;;;;-148.88;100.00;-17125.47;5045191;28;20052;-80
2023/10/07 02:29:21;;;;;;;10.32;7.35;;;;;;;-148.88;100.00;-17125.47;5045015;28;20100;-84
2023/10/07 02:31:50;;;;;;;17.25;8.10;;;;;;;-148.88;100.00;-17125.47;5041841;28;20033;-81
2023/10/07 02:34:33;;;;;;;11.05;7.63;;;;;;;-148.88;100.00;-17125.47;5040196;28;20494;-81
2023/10/07 02:37:12;;;;;;;13.70;7.90;;;;;;;-148.88;100.00;-17125.47;5039507;28;20436;-81
2023/10/07 02:39:48;;;;;;;15.35;8.20;;;;;;;-148.88;100.00;-17125.47;5039656;28;20465;-81
2023/10/07 02:42:24;;;;;;;12.68;8.00;;;;;;;-148.88;100.00;-17125.47;5039326;28;20136;-78
2023/10/07 02:45:01;;;;;;;13.00;9.10;;;;;;;-148.88;100.00;-17125.47;5039672;28;20025;-80
2023/10/07 02:47:32;;;;;;;15.30;8.65;;;;;;;-148.88;100.00;-17125.47;5039717;28;20019;-79
2023/10/07 02:50:01;;;;;;;16.58;9.25;;;;;;;-148.88;100.00;-17125.47;5039264;28;20022;-80
2023/10/07 02:52:37;;;;;;;14.98;9.35;;;;;;;-148.88;100.00;-17125.47;5039163;28;20128;-84
2023/10/07 02:57:40;;;;;;;13.20;8.30;;;;;;;-148.88;100.00;-17125.47;5040052;28;20081;-81
2023/10/07 03:00:16;;;;;;;14.15;8.90;;;;;;;-148.88;100.00;-17125.47;5038812;28;20398;-78
2023/10/07 03:02:51;;;;;;;13.80;8.85;;;;;;;-148.88;100.00;-17125.47;5038600;28;20425;-81
2023/10/07 03:05:29;;;;;;;14.75;9.73;;;;;;;-148.88;100.00;-17125.47;5034542;28;20022;-81
2023/10/07 03:08:04;;;;;;;20.95;9.07;;;;;;;-148.88;100.00;-17125.47;5035486;28;20120;-80
2023/10/07 03:13:18;;;;;;;13.52;9.32;;;;;;;-148.88;100.00;-17125.47;5005993;28;20067;-79
2023/10/07 03:15:46;;;;;;;13.88;9.95;;;;;;;-148.88;100.00;-17125.47;5035247;28;20036;-82
2023/10/07 03:18:21;;;;;;;15.55;10.27;;;;;;;-148.88;100.00;-17125.47;5035129;28;20090;-81
2023/10/07 03:21:00;;;;;;;16.55;10.57;;;;;;;-148.88;100.00;-17125.47;5035480;28;20060;-82
2023/10/07 03:23:27;;;;;;;17.58;10.20;;;;;;;-148.88;100.00;-17125.47;5037225;28;20017;-82
2023/10/07 03:28:34;;;;;;;21.15;10.68;;;;;;;-148.88;100.00;-17125.47;5036256;28;20018;-79
2023/10/07 03:31:08;;;;;;;17.70;10.90;;;;;;;-148.88;100.00;-17125.47;5034387;28;20032;-81
2023/10/07 03:33:52;;;;;;;21.63;11.73;;;;;;;-148.88;100.00;-17125.47;5034774;28;20130;-80
2023/10/07 03:38:55;;;;;;;17.75;12.35;;;;;;;-148.88;100.00;-17125.47;5035634;28;20091;-81
2023/10/07 03:41:21;;;;;;;18.02;11.43;;;;;;;-148.88;100.00;-17125.47;5034095;28;20072;-83
2023/10/07 03:43:52;;;;;;;16.83;12.48;;;;;;;-148.88;100.00;-17125.47;5035811;28;20022;-79
2023/10/07 03:46:27;;;;;;;21.13;12.43;;;;;;;-148.88;100.00;-17125.47;5034947;28;20025;-81
2023/10/07 03:48:56;;;;;;;18.40;12.77;;;;;;;-148.88;100.00;-17125.47;5035471;28;20034;-82
2023/10/07 03:51:22;;;;;;;17.20;11.45;;;;;;;-148.88;100.00;-17125.47;5035864;28;20478;-80
2023/10/07 03:53:57;;;;;;;18.77;12.68;;;;;;;-148.88;100.00;-17125.47;5035154;28;20064;-80
2023/10/07 03:56:22;;;;;;;19.40;12.77;;;;;;;-148.88;100.00;-17125.47;5034843;28;20053;-81
2023/10/07 03:59:08;;;;;;;19.30;13.02;;;;;;;-148.88;100.00;-17125.47;5034719;28;20025;-79
2023/10/07 04:01:42;;;;;;;16.63;12.95;;;;;;;-148.88;100.00;-17125.47;5036249;28;20100;-80
2023/10/07 04:04:11;;;;;;;19.98;13.05;;;;;;;-148.88;100.00;-17125.47;5033982;28;20025;-81
2023/10/07 04:06:37;;;;;;;17.42;12.38;;;;;;;-148.88;100.00;-17125.47;5034507;28;20029;-82
2023/10/07 04:09:06;;;;;;;17.52;12.57;;;;;;;-148.88;100.00;-17125.47;5033676;28;20021;-80
2023/10/07 04:11:44;;;;;;;22.58;12.85;;;;;;;-148.88;100.00;-17125.47;5033760;28;20477;-81
2023/10/07 04:17:11;;;;;;;18.42;13.50;;;;;;;-148.88;100.00;-17125.47;5025702;28;20033;-81
2023/10/07 04:19:52;;;;;;;24.90;13.15;;;;;;;-148.88;100.00;-17125.47;5034510;28;20116;-81
2023/10/07 04:22:24;;;;;;;20.80;13.07;;;;;;;-148.88;100.00;-17125.47;5034645;28;20068;-82
2023/10/07 04:24:52;;;;;;;20.38;12.50;;;;;;;-148.88;100.00;-17125.47;5033821;28;20033;-81
2023/10/07 04:27:32;;;;;;;17.17;14.20;;;;;;;-148.88;100.00;-17125.47;5033763;28;20095;-81
2023/10/07 04:30:00;;;;;;;19.63;13.30;;;;;;;-148.88;100.00;-17125.47;5033670;28;20025;-81
2023/10/07 04:32:26;;;;;;;22.20;13.32;;;;;;;-148.88;100.00;-17125.47;5033673;28;20025;-81
2023/10/07 04:35:37;;;;;;;18.52;13.38;;;;;;;-148.88;100.00;-17125.47;5033134;28;20124;-83
2023/10/07 04:37:54;;;;;;;22.58;13.43;;;;;;;-148.88;100.00;-17125.47;5027426;28;20041;-81
2023/10/07 04:45:48;;;;;;;;;;;;;;;-148.88;100.00;-17125.47;5035635;28;20048;-81
2023/10/07 04:51:24;;;;;;;24.10;15.25;;;;;;;-148.88;100.00;-17125.47;4993877;28;20027;-81
2023/10/07 04:53:57;;;;;;;19.73;15.18;;;;;;;-148.88;100.00;-17125.47;4993766;28;20030;-82
2023/10/07 04:56:25;;;;;;;22.20;15.35;;;;;;;-148.88;100.00;-17125.47;5006891;28;20533;-81
2023/10/07 04:58:53;;;;;;;23.65;15.75;;;;;;;-148.88;100.00;-17125.47;5034609;28;20025;-81
2023/10/07 05:01:33;;;;;;;23.00;15.88;;;;;;;-148.88;100.00;-17125.47;5035728;28;20030;-81
2023/10/07 05:04:09;;;;;;;25.50;16.55;;;;;;;-148.88;100.00;-17125.47;5033931;28;20512;-81
2023/10/07 05:06:44;;;;;;;25.90;17.45;;;;;;;-148.88;100.00;-17125.47;5036724;28;20025;-81
2023/10/07 05:09:18;;;;;;;25.40;17.40;;;;;;;-148.88;100.00;-17125.47;5033918;28;20040;-80
2023/10/07 05:11:47;;;;;;;29.60;18.38;;;;;;;-148.88;100.00;-17125.47;5033120;28;20027;-80
2023/10/07 05:14:22;;;;;;;27.13;18.27;;;;;;;-148.88;100.00;-17125.47;5033525;28;20025;-80
2023/10/07 05:17:00;;;;;;;26.30;18.25;;;;;;;-148.88;100.00;-17125.47;5032639;28;20029;-81
2023/10/07 05:19:28;;;;;;;23.35;17.17;;;;;;;-148.88;100.00;-17125.47;5032999;28;20025;-81
2023/10/07 05:22:05;;;;;;;22.92;17.77;;;;;;;-148.88;100.00;-17125.47;5032552;28;20033;-83
2023/10/07 05:24:33;;;;;;;25.77;18.48;;;;;;;-148.88;100.00;-17125.47;5032800;28;20037;-81
2023/10/07 05:27:02;;;;;;;25.67;18.85;;;;;;;-148.88;100.00;-17125.47;5033928;28;20108;-81
2023/10/07 05:29:34;;;;;;;26.70;18.63;;;;;;;-148.88;100.00;-17125.47;5032370;28;20036;-80
2023/10/07 05:32:00;;;;;;;37.53;19.75;;;;;;;-148.88;100.00;-17125.47;5033904;28;20029;-82
2023/10/07 05:34:29;;;;;;;30.75;20.55;;;;;;;-148.88;100.00;-17125.47;5032109;28;20041;-82
2023/10/07 05:37:10;;;;;;;30.48;20.27;;;;;;;-148.88;100.00;-17125.47;5032709;28;20021;-81
2023/10/07 05:39:36;;;;;;;27.02;20.30;;;;;;;-148.88;100.00;-17125.47;5032266;28;20504;-79
2023/10/07 05:42:22;;;;;;;28.83;21.10;;;;;;;-148.88;100.00;-17125.47;5032243;28;20026;-82
2023/10/07 05:44:48;;;;;;;27.73;20.65;;;;;;;-148.88;100.00;-17125.47;5032214;28;20029;-79
2023/10/07 05:47:14;;;;;;;31.15;20.80;;;;;;;-148.88;100.00;-17125.47;5032914;28;20055;-82
2023/10/07 05:50:00;;;;;;;32.38;21.63;;;;;;;-148.88;100.00;-17125.47;5033627;28;20048;-80
2023/10/07 05:52:27;;;;;;;30.52;20.63;;;;;;;-148.88;100.00;-17125.47;5032867;28;20030;-82
2023/10/07 05:54:56;;;;;;;32.83;22.60;;;;;;;-148.88;100.00;-17125.47;5032518;28;20425;-81
2023/10/07 05:57:23;;;;;;;31.98;22.73;;;;;;;-148.88;100.00;-17125.47;5031932;28;20083;-81
2023/10/07 05:59:50;;;;;;;31.90;23.20;;;;;;;-148.88;100.00;-17125.47;5031812;28;20041;-82
2023/10/07 06:02:19;;;;;;;33.88;23.45;;;;;;;-148.88;100.00;-17125.47;5032699;28;20021;-81
2023/10/07 06:04:51;;;;;;;37.53;24.10;;;;;;;-148.88;100.00;-17125.47;5032078;28;20017;-81
2023/10/07 06:07:22;;;;;;;33.42;23.67;;;;;;;-148.88;100.00;-17125.47;5032191;28;20017;-80
2023/10/07 06:09:53;;;;;;;37.50;25.58;;;;;;;-148.88;100.00;-17125.47;5032758;28;20033;-78
2023/10/07 06:12:21;;;;;;;36.25;25.05;;;;;;;-148.88;100.00;-17125.47;5031976;28;20035;-82
2023/10/07 06:14:46;;;;;;;35.22;26.20;;;;;;;-148.88;100.00;-17125.47;5032031;28;20041;-82
2023/10/07 06:17:11;;;;;;;38.28;26.48;;;;;;;-148.88;100.00;-17125.47;5033691;28;20156;-79
2023/10/07 06:19:38;;;;;;;38.08;27.67;;;;;;;-148.88;100.00;-17125.47;5032634;28;20025;-82
2023/10/07 06:22:14;;;;;;;36.05;27.58;;;;;;;-148.88;100.00;-17125.47;5031751;28;20032;-81
2023/10/07 06:24:43;;;;;;;45.65;28.42;;;;;;;-148.88;100.00;-17125.47;5033101;28;20136;-80
2023/10/07 06:27:13;;;;;;;39.60;29.42;;;;;;;-148.88;100.00;-17125.47;5032122;28;20025;-82
2023/10/07 06:29:45;;;;;;;41.03;30.50;;;;;;;-148.88;100.00;-17125.47;5031995;28;20127;-81
2023/10/07 06:32:22;;;;;;;43.38;30.60;;;;;;;-148.88;100.00;-17125.47;5031609;28;20091;-80
2023/10/07 06:34:55;;;;;;;47.20;33.63;;;;;;;-148.88;100.00;-17125.47;5031897;28;20030;-79
2023/10/07 06:37:29;;;;;;;42.78;31.60;;;;;;;-148.88;100.00;-17125.47;5031057;28;20048;-82
2023/10/07 06:39:58;;;;;;;50.17;34.28;;;;;;;-148.88;100.00;-17125.47;5035183;28;20116;-83
2023/10/07 06:42:27;;;;;;;48.83;33.40;;;;;;;-148.88;100.00;-17125.47;5035788;28;20021;-81
2023/10/07 06:44:56;;;;;;;48.50;34.67;;;;;;;-148.88;100.00;-17125.47;5036331;28;20033;-82
2023/10/07 06:47:24;;;;;;;53.95;35.30;;;;;;;-148.88;100.00;-17125.47;5035989;28;20029;-79
2023/10/07 06:49:52;;;;;;;44.38;34.97;;;;;;;-148.88;100.00;-17125.47;5035911;28;20060;-80
2023/10/07 06:52:22;;;;;;;46.60;33.83;;;;;;;-148.88;100.00;-17125.47;5037828;28;20017;-79
2023/10/07 06:54:47;;;;;;;50.13;34.72;;;;;;;-148.88;100.00;-17125.47;5036081;28;20033;-79
2023/10/07 06:57:17;;;;;;;48.50;34.78;;;;;;;-148.88;100.00;-17125.47;5035913;28;20025;-81
2023/10/07 06:59:45;;;;;;;50.83;35.25;;;;;;;-148.88;100.00;-17125.47;5035897;28;20021;-78
2023/10/07 07:02:34;;;;;;;52.05;35.75;;;;;;;-148.88;100.00;-17125.47;5036574;28;20436;-79
2023/10/07 07:04:57;;;;;;;51.33;35.70;;;;;;;-148.88;100.00;-17125.47;5037418;28;20021;-82
2023/10/07 07:07:27;;;;;;;49.53;36.20;;;;;;;-148.88;100.00;-17125.47;5035213;28;20433;-82
2023/10/07 07:09:58;;;;;;;55.20;35.63;;;;;;;-148.88;100.00;-17125.47;5035397;28;20033;-80
2023/10/07 07:12:33;;;;;;;55.63;35.22;;;;;;;-148.88;100.00;-17125.47;5035080;28;20084;-81
2023/10/07 07:15:08;;;;;;;52.15;36.92;;;;;;;-148.88;100.00;-17125.47;5035318;28;20037;-79
2023/10/07 07:22:45;;;;;;;50.28;36.50;;;;;;;-148.88;100.00;-17125.47;5039526;28;20026;-81
2023/10/07 07:25:29;;;;;;;55.35;37.00;;;;;;;-148.88;100.00;-17125.47;5038650;28;20485;-80
2023/10/07 07:28:00;;;;;;;55.85;37.55;;;;;;;-148.88;100.00;-17125.47;5038146;28;20523;-80
2023/10/07 07:30:31;;;;;;;56.15;37.97;;;;;;;-148.88;100.00;-17125.47;5037837;28;20349;-80
2023/10/07 07:33:06;;;;;;;56.55;36.60;;;;;;;-148.88;100.00;-17125.47;5037086;28;20089;-79
2023/10/07 07:35:39;;;;;;;58.28;38.80;;;;;;;-148.88;100.00;-17125.47;5039108;28;20446;-83
2023/10/07 07:38:30;;;;;;;54.88;37.20;;;;;;;-148.88;100.00;-17125.47;5038726;28;20025;-82
2023/10/07 07:41:09;;;;;;;55.65;38.83;;;;;;;-148.88;100.00;-17125.47;5036767;28;20089;-83
2023/10/07 07:43:43;;;;;;;54.78;35.75;;;;;;;-148.88;100.00;-17125.47;5034285;28;20029;-81
2023/10/07 07:46:26;;;;;;;53.35;36.33;;;;;;;-148.88;100.00;-17125.47;5034756;28;20037;-82
2023/10/07 07:49:06;;;;;;;56.40;37.50;;;;;;;-148.88;100.00;-17125.47;5035414;28;20112;-79
2023/10/07 07:51:37;;;;;;;52.60;36.60;;;;;;;-148.88;100.00;-17125.47;5035073;28;20045;-82
2023/10/07 07:54:05;;;;;;;52.50;38.33;;;;;;;-148.88;100.00;-17125.47;5035756;28;20084;-81
2023/10/07 07:56:37;;;;;;;51.15;36.95;;;;;;;-148.88;100.00;-17125.47;5035069;28;20109;-81
2023/10/07 07:59:13;;;;;;;53.88;36.80;;;;;;;-148.88;100.00;-17125.47;5035833;28;20059;-82
2023/10/07 08:02:11;;;;;;;57.13;38.08;;;;;;;-148.88;100.00;-17125.47;5036525;28;20037;-80
2023/10/07 08:04:45;;;;;;;54.90;37.50;;;;;;;-148.88;100.00;-17125.47;5034908;28;20025;-82
2023/10/07 08:09:50;;;;;;;57.70;37.90;;;;;;;-148.88;100.00;-17125.47;5036326;28;20028;-80
2023/10/07 08:12:19;;;;;;;53.45;37.72;;;;;;;-148.88;100.00;-17125.47;5034890;28;20026;-82
2023/10/07 08:14:52;;;;;;;61.65;38.90;;;;;;;-148.88;100.00;-17125.47;5034427;28;20025;-81
2023/10/07 08:17:19;;;;;;;61.30;39.42;;;;;;;-148.88;100.00;-17125.47;5034479;28;20025;-81
2023/10/07 08:19:53;;;;;;;56.42;38.38;;;;;;;-148.88;100.00;-17125.47;5033697;28;20022;-82
2023/10/07 08:22:23;;;;;;;56.08;38.13;;;;;;;-148.88;100.00;-17125.47;5034147;28;20029;-79
2023/10/07 08:24:52;;;;;;;62.78;39.20;;;;;;;-148.88;100.00;-17125.47;5035247;28;20393;-81
2023/10/07 08:30:13;;;;;;;57.25;37.53;;;;;;;-148.88;100.00;-17125.47;5035719;28;20412;-81
2023/10/07 08:32:41;;;;;;;57.55;38.95;;;;;;;-148.88;100.00;-17125.47;5034046;28;20022;-83
2023/10/07 08:35:19;;;;;;;56.38;38.50;;;;;;;-148.88;100.00;-17125.47;5034842;28;20033;-81
2023/10/07 08:37:49;;;;;;;56.38;36.90;;;;;;;-148.88;100.00;-17125.47;5033949;28;20030;-82
2023/10/07 08:40:28;;;;;;;51.22;36.55;;;;;;;-148.88;100.00;-17125.47;5033922;28;20051;-81
2023/10/07 08:42:57;;;;;;;58.58;38.47;;;;;;;-148.88;100.00;-17125.47;5035014;28;20029;-81
2023/10/07 08:45:28;;;;;;;51.33;36.80;;;;;;;-148.88;100.00;-17125.47;5034158;28;20502;-79
2023/10/07 08:48:09;;;;;;;57.22;37.15;;;;;;;-148.88;100.00;-17125.47;5036684;28;20601;-81
2023/10/07 08:50:55;;;;;;;51.08;37.17;;;;;;;-148.88;100.00;-17125.47;5039269;28;20025;-79
2023/10/07 08:53:29;;;;;;;50.72;36.08;;;;;;;-148.88;100.00;-17125.47;5037883;28;20017;-82
2023/10/07 08:56:08;;;;;;;46.75;35.78;;;;;;;-148.88;100.00;-17125.47;5036059;28;20386;-80
2023/10/07 08:58:38;;;;;;;49.00;36.95;;;;;;;-148.88;100.00;-17125.47;5036613;28;20021;-82
2023/10/07 09:01:07;;;;;;;48.63;36.75;;;;;;;-148.88;100.00;-17125.47;5042485;28;20078;-83
2023/10/07 09:03:40;;;;;;;47.25;34.75;;;;;;;-148.88;100.00;-17125.47;5040699;28;20116;-84
2023/10/07 09:06:11;;;;;;;47.65;34.90;;;;;;;-148.88;100.00;-17125.47;5042388;28;20494;-84
2023/10/07 09:08:43;;;;;;;43.45;32.47;;;;;;;-148.88;100.00;-17125.47;5040002;28;20029;-82
2023/10/07 09:11:19;;;;;;;41.47;32.03;;;;;;;-148.88;100.00;-17125.47;5035421;28;20037;-79
2023/10/07 09:13:47;;;;;;;42.10;32.55;;;;;;;-148.88;100.00;-17125.47;5033888;28;20026;-82
2023/10/07 09:16:21;;;;;;;46.22;31.85;;;;;;;-148.88;100.00;-17125.47;5032686;28;20075;-82
2023/10/07 09:18:55;;;;;;;41.35;32.45;;;;;;;-148.88;100.00;-17125.47;5034164;28;20112;-80
2023/10/07 09:21:33;;;;;;;42.55;31.13;;;;;;;-148.88;100.00;-17125.47;5033278;28;20033;-81
2023/10/07 09:24:04;;;;;;;36.50;30.27;;;;;;;-148.88;100.00;-17125.47;5034328;28;20029;-79
2023/10/07 09:26:41;;;;;;;46.95;31.52;;;;;;;-148.88;100.00;-17125.47;5032987;28;20116;-80
2023/10/07 09:29:22;;;;;;;37.85;29.40;;;;;;;-148.88;100.00;-17125.47;5033435;28;20041;-81
2023/10/07 09:31:57;;;;;;;41.83;30.33;;;;;;;-148.88;100.00;-17125.47;5033578;28;20048;-80
2023/10/07 09:34:54;;;;;;;39.60;30.25;;;;;;;-148.88;100.00;-17125.47;5033567;28;20033;-80
2023/10/07 09:37:32;;;;;;;38.97;29.48;;;;;;;-148.88;100.00;-17125.47;5033859;28;20033;-81
2023/10/07 09:42:58;;;;;;;36.03;28.98;;;;;;;-148.88;100.00;-17125.47;5034845;28;20080;-79
2023/10/07 09:45:32;;;;;;;37.35;28.85;;;;;;;-148.88;100.00;-17125.47;5035004;28;20068;-83
2023/10/07 09:48:05;;;;;;;38.50;29.95;;;;;;;-148.88;100.00;-17125.47;5034650;28;20021;-82
2023/10/07 09:50:34;;;;;;;35.70;28.43;;;;;;;-148.88;100.00;-17125.47;5034650;28;20033;-83
2023/10/07 09:53:50;;;;;;;40.15;28.13;;;;;;;-148.88;100.00;-17125.47;5033341;28;20033;-82
2023/10/07 09:56:43;;;;;;;35.88;28.92;;;;;;;-148.88;100.00;-17125.47;4938360;29;20024;-80
2023/10/07 09:59:36;;;;;;;32.50;28.33;;;;;;;-148.88;100.00;-17125.47;4939443;29;20032;-83
2023/10/07 10:02:27;;;;;;;31.15;25.73;;;;;;;-148.88;100.00;-17125.47;4937433;29;20046;-84
2023/10/07 10:05:14;;;;;;;34.13;27.00;;;;;;;-148.88;100.00;-17125.47;4938170;29;20150;-81
2023/10/07 10:08:11;;;;;;;31.13;25.75;;;;;;;-148.88;100.00;-17125.47;4991971;28;20515;-82
2023/10/07 10:11:19;;;;;;;28.23;24.50;;;;;;;-148.88;100.00;-17125.47;5033813;28;20470;-79
2023/10/07 10:14:10;;;;;;;30.83;24.17;;;;;;;-148.88;100.00;-17125.47;5031345;28;20040;-81
2023/10/07 10:16:44;;;;;;;28.75;23.23;;;;;;;-148.88;100.00;-17125.47;5039425;28;20446;-82
2023/10/07 10:19:22;;;;;;;25.63;22.52;;;;;;;-148.88;100.00;-17125.47;5037398;28;20021;-82
2023/10/07 10:22:12;;;;;;;25.08;20.77;;;;;;;-148.88;100.00;-17125.47;5036768;28;20044;-81
2023/10/07 10:25:22;;;;;;;24.73;20.85;;;;;;;-148.88;100.00;-17125.47;4940682;29;20035;-82
2023/10/07 10:28:12;;;;;;;23.60;19.77;;;;;;;-148.88;100.00;-17125.47;5038465;28;20018;-84
2023/10/07 10:30:53;;;;;;;22.08;18.08;;;;;;;-148.88;100.00;-17125.47;5037144;28;20060;-83
2023/10/07 10:33:28;;;;;;;22.88;18.25;;;;;;;-148.88;100.00;-17125.47;5038447;28;20021;-82
2023/10/07 10:36:00;;;;;;;23.27;17.90;;;;;;;-148.88;100.00;-17125.47;5036863;28;20400;-84
2023/10/07 10:38:40;;;;;;;17.92;15.85;;;;;;;-148.88;100.00;-17125.47;5035117;28;20041;-81
2023/10/07 10:41:11;;;;;;;17.85;14.68;;;;;;;-148.88;100.00;-17125.47;5036721;28;20116;-82
2023/10/07 10:44:10;;;;;;;16.17;13.95;;;;;;;-148.88;100.00;-17125.47;5036120;28;20085;-82
2023/10/07 10:46:44;;;;;;;17.17;12.90;;;;;;;-148.88;100.00;-17125.47;5036101;28;20490;-81
2023/10/07 10:49:23;;;;;;;15.45;10.65;;;;;;;-148.88;100.00;-17125.47;5037397;28;20373;-84
2023/10/07 10:51:50;;;;;;;14.45;10.02;;;;;;;-148.88;100.00;-17125.47;5036549;28;20033;-82
2023/10/07 10:54:20;;;;;;;15.85;10.32;;;;;;;-148.88;100.00;-17125.47;5038856;23;20041;-74
2023/10/07 10:56:49;;;;;;;14.32;9.35;;;;;;;-148.88;100.00;-17125.47;5034856;28;20501;-74
2023/10/07 10:59:16;;;;;;;11.80;9.10;;;;;;;-148.88;100.00;-17125.47;5035107;28;20055;-74
2023/10/07 11:01:44;;;;;;;13.05;8.82;;;;;;;-148.88;100.00;-17125.47;5035132;28;20036;-75
2023/10/07 11:04:13;;;;;;;15.90;8.45;;;;;;;-148.88;100.00;-17125.47;5034764;28;20497;-74
2023/10/07 11:06:41;;;;;;;10.60;7.22;;;;;;;-148.88;100.00;-17125.47;5034078;28;20490;-74
2023/10/07 11:09:09;;;;;;;11.52;7.80;;;;;;;-148.88;100.00;-17125.47;5034129;28;20025;-74
2023/10/07 11:11:35;;;;;;;10.93;6.50;;;;;;;-148.88;100.00;-17125.47;5033861;28;20029;-75
2023/10/07 11:14:12;;;;;;;10.57;6.38;;;;;;;-148.88;100.00;-17125.47;5035581;28;20029;-74
2023/10/07 11:16:49;;;;;;;11.18;6.07;;;;;;;-148.88;100.00;-17125.47;5034973;28;20033;-74
2023/10/07 11:19:19;;;;;;;9.55;6.07;;;;;;;-148.88;100.00;-17125.47;5033432;28;20052;-74
2023/10/07 11:21:45;;;;;;;10.10;5.47;;;;;;;-148.88;100.00;-17125.47;5034757;28;20037;-74
2023/10/07 11:24:23;;;;;;;8.32;5.25;;;;;;;-148.88;100.00;-17125.47;5034967;28;20021;-74
2023/10/07 11:26:52;;;;;;;9.95;4.70;;;;;;;-148.88;100.00;-17125.47;5033568;28;20018;-74
2023/10/07 11:29:18;;;;;;;8.50;4.97;;;;;;;-148.88;100.00;-17125.47;5034463;28;20595;-74
2023/10/07 11:31:46;;;;;;;8.52;4.55;;;;;;;-148.88;100.00;-17125.47;5034327;28;20025;-74
2023/10/07 11:34:13;;;;;;;9.15;4.32;;;;;;;-148.88;100.00;-17125.47;5034378;28;20022;-73
2023/10/07 11:36:43;;;;;;;5.82;3.83;;;;;;;-148.88;100.00;-17125.47;5034122;28;20030;-74
2023/10/07 11:39:09;;;;;;;7.78;4.18;;;;;;;-148.88;100.00;-17125.47;5034115;28;20072;-74
2023/10/07 11:41:36;;;;;;;8.15;4.05;;;;;;;-148.88;100.00;-17125.47;5034504;28;20113;-74
2023/10/07 11:44:03;;;;;;;9.38;3.60;;;;;;;-148.88;100.00;-17125.47;5035536;28;20171;-73
2023/10/07 11:46:29;;;;;;;9.50;3.70;;;;;;;-148.88;100.00;-17125.47;5034350;28;20033;-73
2023/10/07 11:48:56;;;;;;;7.20;3.65;;;;;;;-148.88;100.00;-17125.47;5034274;28;20021;-73
2023/10/07 11:51:23;;;;;;;9.45;3.90;;;;;;;-148.88;100.00;-17125.47;5034330;28;20033;-73
2023/10/07 11:53:50;;;;;;;6.55;3.42;;;;;;;-148.88;100.00;-17125.47;5033708;28;20025;-73
2023/10/07 11:56:16;;;;;;;6.65;3.22;;;;;;;-148.88;100.00;-17125.47;5034097;28;20104;-73
2023/10/07 11:58:42;;;;;;;9.20;3.90;;;;;;;-148.88;100.00;-17125.47;5032302;28;20057;-73
2023/10/07 12:01:07;;;;;;;6.93;3.03;;;;;;;-148.88;100.00;-17125.47;5033753;28;20052;-74
2023/10/07 12:03:34;;;;;;;6.35;3.10;;;;;;;-148.88;100.00;-17125.47;5033723;28;20075;-73
2023/10/07 12:05:59;;;;;;;6.90;3.25;;;;;;;-148.88;100.00;-17125.47;5033608;28;20022;-73
2023/10/07 12:08:25;;;;;;;9.07;3.50;;;;;;;-148.88;100.00;-17125.47;5033545;28;20173;-73
2023/10/07 12:10:56;;;;;;;5.55;3.20;;;;;;;-148.88;100.00;-17125.47;5033799;28;20052;-73
2023/10/07 12:13:22;;;;;;;7.20;3.38;;;;;;;-148.88;100.00;-17125.47;5033620;28;20033;-73
2023/10/07 12:15:47;;;;;;;9.10;3.38;;;;;;;-148.88;100.00;-17125.47;5033612;28;20407;-74